Terminal Aerodrome Forecast
Issued by NWS Binghamton, NY

Home | Current Version | Previous Version | Text Only | Print | Product List | Glossary On
Versions: 1 2 3 4 5 6 7 8 9 10 11 12 13 14 15 16 17 18 19 20 21 22 23 24 25 26 27 28 29 30 31 32
000
FTUS41 KBGM 130818 AAA
TAFSYR
TAF AMD
KSYR 130818Z 1308/1406 18012G22KT P6SM OVC200
     FM131500 15008KT P6SM SCT250
     FM132100 12006KT P6SM BKN050
     FM132300 12007KT P6SM OVC025
     FM140300 12007KT 6SM -RA BR OVC017=

USA.gov is the U.S. government's official web portal to all federal, state and local government web resources and services.